Time;durP1;ratioP1;P1;durP2;ratioP2;P2;SDS_P1;SDS_P2;PMS_P1;PMS_P2;Temp;Humidity;BMP_temperature;BMP_pressure;BME280_temperature;BME280_humidity;BME280_pressure;Samples;Min_cycle;Max_cycle;Signal;HPM_P1;HPM_P2
2023/03/12 00:00:26;;;;;;;;;;;;;;;-142.75;100.00;77983.91;5053149;28;19917;-66
2023/03/12 00:02:52;;;;;;;;;;;;;;;-142.75;100.00;77995.72;5049196;28;19923;-66
2023/03/12 00:05:17;;;;;;;;;;;;;;;-142.75;100.00;78003.59;5045756;28;20380;-68
2023/03/12 00:07:42;;;;;;;;;;;;;;;-142.75;100.00;77991.78;5047893;28;20670;-67
2023/03/12 00:10:08;;;;;;;;;;;;;;;-142.75;100.00;77995.72;5045738;28;19959;-68
2023/03/12 00:12:33;;;;;;;;;;;;;;;-142.75;100.00;77991.78;5050311;28;19917;-66
2023/03/12 00:14:58;;;;;;;;;;;;;;;-142.75;100.00;78003.59;5044494;28;20396;-68
2023/03/12 00:17:23;;;;;;;;;;;;;;;-142.75;100.00;77993.75;5047516;28;19917;-67
2023/03/12 00:19:52;;;;;;;;;;;;;;;-142.75;100.00;77995.72;5042392;28;19913;-68
2023/03/12 00:22:21;;;;;;;;;;;;;;;-142.75;100.00;77999.66;5046768;28;19912;-67
2023/03/12 00:24:48;;;;;;;;;;;;;;;-142.75;100.00;77991.78;5049801;28;19912;-68
2023/03/12 00:27:14;;;;;;;;;;;;;;;-142.75;100.00;77989.81;5043625;28;19917;-67
2023/03/12 00:29:39;;;;;;;;;;;;;;;-142.75;100.00;77989.81;5046557;28;20472;-68
2023/03/12 00:32:04;;;;;;;;;;;;;;;-142.75;100.00;77964.22;5045724;28;19921;-67
2023/03/12 00:34:29;;;;;;;;;;;;;;;-142.75;100.00;77962.25;5048532;28;19913;-68
2023/03/12 00:36:55;;;;;;;;;;;;;;;-142.75;100.00;77960.28;5045122;28;19913;-69
2023/03/12 00:39:20;;;;;;;;;;;;;;;-142.75;100.00;77956.34;5045281;28;20000;-68
2023/03/12 00:41:45;;;;;;;;;;;;;;;-142.75;100.00;77960.28;5044134;28;19948;-68
2023/03/12 00:44:10;;;;;;;;;;;;;;;-142.75;100.00;77956.34;5045924;28;20002;-68
2023/03/12 00:46:35;;;;;;;;;;;;;;;-142.75;100.00;77952.41;5047293;28;19913;-68
2023/03/12 00:49:01;;;;;;;;;;;;;;;-142.75;100.00;77938.63;5045407;28;19913;-68
2023/03/12 00:51:26;;;;;;;;;;;;;;;-142.75;100.00;77938.63;5040847;28;19917;-68
2023/03/12 00:53:52;;;;;;;;;;;;;;;-142.75;100.00;77926.81;5048372;28;20471;-67
2023/03/12 00:56:17;;;;;;;;;;;;;;;-142.75;100.00;77930.75;5051945;28;20540;-65
2023/03/12 00:58:42;;;;;;;;;;;;;;;-142.75;100.00;77932.72;5044366;28;19917;-68
2023/03/12 01:01:07;;;;;;;;;;;;;;;-142.75;100.00;77928.78;5050332;28;19952;-68
2023/03/12 01:03:33;;;;;;;;;;;;;;;-142.75;100.00;77944.53;5052931;28;19912;-68
2023/03/12 01:05:58;;;;;;;;;;;;;;;-142.75;100.00;77928.78;5053206;28;19920;-67
2023/03/12 01:08:23;;;;;;;;;;;;;;;-142.75;100.00;77932.72;5051378;28;20715;-68
2023/03/12 01:10:48;;;;;;;;;;;;;;;-142.75;100.00;77928.78;5050516;28;19917;-68
2023/03/12 01:13:14;;;;;;;;;;;;;;;-142.75;100.00;77920.91;5051873;28;19924;-68
2023/03/12 01:15:39;;;;;;;;;;;;;;;-142.75;100.00;77924.84;5046310;28;19928;-66
2023/03/12 01:18:04;;;;;;;;;;;;;;;-142.75;100.00;77913.03;5042408;28;20319;-66
2023/03/12 01:20:30;;;;;;;;;;;;;;;-142.75;100.00;77893.31;5043952;28;20618;-66
2023/03/12 01:22:55;;;;;;;;;;;;;;;-142.75;100.00;77889.38;5045458;28;19967;-66
2023/03/12 01:25:20;;;;;;;;;;;;;;;-142.75;100.00;77891.34;5049807;28;20003;-68
2023/03/12 01:27:45;;;;;;;;;;;;;;;-142.75;100.00;77891.34;5050443;28;19913;-69
2023/03/12 01:30:11;;;;;;;;;;;;;;;-142.75;100.00;77899.22;5051960;28;19932;-69
2023/03/12 01:32:36;;;;;;;;;;;;;;;-142.75;100.00;77877.56;5051940;28;19923;-69
2023/03/12 01:35:02;;;;;;;;;;;;;;;-142.75;100.00;77873.63;5052086;28;19967;-68
2023/03/12 01:37:27;;;;;;;;;;;;;;;-142.75;100.00;77889.38;5052136;28;19960;-68
2023/03/12 01:39:52;;;;;;;;;;;;;;;-142.75;100.00;77881.50;5051950;28;19913;-69
2023/03/12 01:42:18;;;;;;;;;;;;;;;-142.75;100.00;77893.31;5051947;28;19963;-68
2023/03/12 01:44:49;;;;;;;;;;;;;;;-142.75;100.00;77881.50;5051971;28;19917;-68
2023/03/12 01:47:14;;;;;;;;;;;;;;;-142.75;100.00;77881.50;5052055;28;19917;-68
2023/03/12 01:49:39;;;;;;;;;;;;;;;-142.75;100.00;77887.41;5051872;28;19958;-69
2023/03/12 01:52:04;;;;;;;;;;;;;;;-142.75;100.00;77893.31;5051846;28;19917;-68
2023/03/12 01:54:41;;;;;;;;;;;;;;;-142.75;100.00;77883.47;5051855;28;19939;-69
2023/03/12 01:57:13;;;;;;;;;;;;;;;-142.75;100.00;77883.47;5050608;28;19944;-69
2023/03/12 01:59:45;;;;;;;;;;;;;;;-142.75;100.00;77885.44;5050469;28;19919;-68
2023/03/12 02:02:11;;;;;;;;;;;;;;;-142.75;100.00;77869.69;5051816;28;19912;-69
2023/03/12 02:04:37;;;;;;;;;;;;;;;-142.75;100.00;77857.88;5054778;28;19919;-68
2023/03/12 02:07:04;;;;;;;;;;;;;;;-142.75;100.00;77867.72;5055896;28;19913;-69
2023/03/12 02:09:31;;;;;;;;;;;;;;;-142.75;100.00;77861.81;5055725;28;19920;-66
2023/03/12 02:11:56;;;;;;;;;;;;;;;-142.75;100.00;77867.72;5055616;28;19917;-69
2023/03/12 02:14:22;;;;;;;;;;;;;;;-142.75;100.00;77859.84;5055586;28;19935;-69
2023/03/12 02:16:47;;;;;;;;;;;;;;;-142.75;100.00;77848.03;5055508;28;20394;-69
2023/03/12 02:19:36;;;;;;;;;;;;;;;-142.75;100.00;77857.88;5054392;28;19913;-68
2023/03/12 02:22:02;;;;;;;;;;;;;;;-142.75;100.00;77859.84;5034605;28;20020;-69
2023/03/12 02:24:32;;;;;;;;;;;;;;;-142.75;100.00;77848.03;5054574;28;19975;-69
2023/03/12 02:26:58;;;;;;;;;;;;;;;-142.75;100.00;77855.91;5055571;28;19958;-69
2023/03/12 02:29:24;;;;;;;;;;;;;;;-142.75;100.00;77846.06;5055364;28;20273;-70
2023/03/12 02:31:51;;;;;;;;;;;;;;;-142.75;100.00;77842.13;5054010;28;19917;-69
2023/03/12 02:34:16;;;;;;;;;;;;;;;-142.75;100.00;77826.38;5054056;28;19913;-69
2023/03/12 02:36:42;;;;;;;;;;;;;;;-142.75;100.00;77846.06;5055321;28;20399;-69
2023/03/12 02:39:09;;;;;;;;;;;;;;;-142.75;100.00;77830.31;5053854;28;19924;-68
2023/03/12 02:41:36;;;;;;;;;;;;;;;-142.75;100.00;77826.38;5055023;28;19970;-68
2023/03/12 02:44:16;;;;;;;;;;;;;;;-142.75;100.00;77830.31;5055223;28;19920;-69
2023/03/12 02:46:49;;;;;;;;;;;;;;;-142.75;100.00;77844.09;5055237;28;19913;-69
2023/03/12 02:49:16;;;;;;;;;;;;;;;-142.75;100.00;77822.44;5035228;28;19979;-69
2023/03/12 02:51:42;;;;;;;;;;;;;;;-142.75;100.00;77838.19;5034849;28;19917;-69
2023/03/12 02:54:07;;;;;;;;;;;;;;;-142.75;100.00;77824.41;5034052;28;19920;-68
2023/03/12 02:56:33;;;;;;;;;;;;;;;-142.75;100.00;77834.25;5035107;28;19963;-69
2023/03/12 02:58:58;;;;;;;;;;;;;;;-142.75;100.00;77830.31;5034950;28;20008;-69
2023/03/12 03:01:23;;;;;;;;;;;;;;;-142.75;100.00;77818.50;5034711;28;19913;-69
2023/03/12 03:03:49;;;;;;;;;;;;;;;-142.75;100.00;77822.44;5034842;28;20308;-69
2023/03/12 03:06:14;;;;;;;;;;;;;;;-142.75;100.00;77818.50;5034907;28;19917;-69
2023/03/12 03:08:40;;;;;;;;;;;;;;;-142.75;100.00;77806.69;5034925;28;19979;-69
2023/03/12 03:11:05;;;;;;;;;;;;;;;-142.75;100.00;77814.56;5033672;28;19917;-68
2023/03/12 03:13:31;;;;;;;;;;;;;;;-142.75;100.00;77814.56;5033382;28;19927;-67
2023/03/12 03:15:58;;;;;;;;;;;;;;;-142.75;100.00;77820.47;5033639;28;19914;-68
2023/03/12 03:18:23;;;;;;;;;;;;;;;-142.75;100.00;77806.69;5033368;28;19917;-68
2023/03/12 03:21:00;;;;;;;;;;;;;;;-142.75;100.00;77808.66;5033481;28;19963;-68
2023/03/12 03:23:25;;;;;;;;;;;;;;;-142.75;100.00;77808.66;5033141;28;19917;-66
2023/03/12 03:25:51;;;;;;;;;;;;;;;-142.75;100.00;77802.75;5034652;28;19913;-70
2023/03/12 03:28:17;;;;;;;;;;;;;;;-142.75;100.00;77802.75;5034449;28;19929;-69
2023/03/12 03:30:42;;;;;;;;;;;;;;;-142.75;100.00;77802.75;5033937;28;19918;-69
2023/03/12 03:33:08;;;;;;;;;;;;;;;-142.75;100.00;77806.69;5034233;28;19913;-69
2023/03/12 03:35:33;;;;;;;;;;;;;;;-142.75;100.00;77792.91;5034084;28;19936;-69
2023/03/12 03:37:58;;;;;;;;;;;;;;;-142.75;100.00;77783.06;5032826;28;19919;-68
2023/03/12 03:40:24;;;;;;;;;;;;;;;-142.75;100.00;77783.06;5034001;28;20328;-68
2023/03/12 03:42:49;;;;;;;;;;;;;;;-142.75;100.00;77783.06;5032590;28;20005;-68
2023/03/12 03:45:14;;;;;;;;;;;;;;;-142.75;100.00;77777.16;5034021;28;19917;-68
2023/03/12 03:47:39;;;;;;;;;;;;;;;-142.75;100.00;77769.28;5034025;28;19913;-68
2023/03/12 03:50:05;;;;;;;;;;;;;;;-142.75;100.00;77775.19;5033885;28;19913;-69
2023/03/12 03:52:31;;;;;;;;;;;;;;;-142.75;100.00;77779.13;5032495;28;19917;-68
2023/03/12 03:54:58;;;;;;;;;;;;;;;-142.75;100.00;77767.31;5033912;28;19920;-69
2023/03/12 03:57:23;;;;;;;;;;;;;;;-142.75;100.00;77757.47;5033978;28;20000;-68
2023/03/12 03:59:48;;;;;;;;;;;;;;;-142.75;100.00;77757.47;5032377;28;20587;-69
2023/03/12 04:02:13;;;;;;;;;;;;;;;-142.75;100.00;77759.44;5033696;28;19967;-68
2023/03/12 04:04:39;;;;;;;;;;;;;;;-142.75;100.00;77751.56;5033705;28;20030;-68
2023/03/12 04:07:04;;;;;;;;;;;;;;;-142.75;100.00;77755.50;5032493;28;20404;-68
2023/03/12 04:09:29;;;;;;;;;;;;;;;-142.75;100.00;77755.50;5033779;28;20380;-69
2023/03/12 04:11:55;;;;;;;;;;;;;;;-142.75;100.00;77755.50;5032313;28;20004;-68
2023/03/12 04:14:20;;;;;;;;;;;;;;;-142.75;100.00;77771.25;5033532;28;19913;-68
2023/03/12 04:16:45;;;;;;;;;;;;;;;-142.75;100.00;77759.44;5033618;28;19913;-70
2023/03/12 04:19:10;;;;;;;;;;;;;;;-142.75;100.00;77757.47;5033472;28;19935;-68
2023/03/12 04:21:38;;;;;;;;;;;;;;;-142.75;100.00;77761.41;5032025;28;20003;-68
2023/03/12 04:24:03;;;;;;;;;;;;;;;-142.75;100.00;77761.41;5033379;28;19917;-68
2023/03/12 04:26:28;;;;;;;;;;;;;;;-142.75;100.00;77759.44;5033401;28;19967;-68
2023/03/12 04:28:54;;;;;;;;;;;;;;;-142.75;100.00;77767.31;5033329;28;19924;-68
2023/03/12 04:31:19;;;;;;;;;;;;;;;-142.75;100.00;77765.34;5032806;28;19960;-68
2023/03/12 04:33:44;;;;;;;;;;;;;;;-142.75;100.00;77751.56;5032740;28;19913;-69
2023/03/12 04:36:10;;;;;;;;;;;;;;;-142.75;100.00;77755.50;5031803;28;19913;-68
2023/03/12 04:38:35;;;;;;;;;;;;;;;-142.75;100.00;77741.72;5033088;28;19913;-68
2023/03/12 04:41:06;;;;;;;;;;;;;;;-142.75;100.00;77733.84;5032800;28;19913;-66
2023/03/12 04:43:31;;;;;;;;;;;;;;;-142.75;100.00;77725.97;5032584;28;20467;-68
2023/03/12 04:45:57;;;;;;;;;;;;;;;-142.75;100.00;77704.28;5032989;28;20004;-68
2023/03/12 04:48:23;;;;;;;;;;;;;;;-142.75;100.00;77692.47;5031605;28;19979;-68
2023/03/12 04:50:48;;;;;;;;;;;;;;;-142.75;100.00;77676.72;5031569;28;20320;-69
2023/03/12 04:53:13;;;;;;;;;;;;;;;-142.75;100.00;77674.75;5032774;28;19971;-69
2023/03/12 04:55:39;;;;;;;;;;;;;;;-142.75;100.00;77674.75;5032708;28;20016;-68
2023/03/12 04:58:04;;;;;;;;;;;;;;;-142.75;100.00;77672.78;5031800;28;19917;-68
2023/03/12 05:00:29;;;;;;;;;;;;;;;-142.75;100.00;77660.97;5031310;28;20004;-68
2023/03/12 05:02:55;;;;;;;;;;;;;;;-142.75;100.00;77655.06;5032753;28;19920;-68
2023/03/12 05:05:20;;;;;;;;;;;;;;;-142.75;100.00;77655.06;5032520;28;20415;-69
2023/03/12 05:07:45;;;;;;;;;;;;;;;-142.75;100.00;77647.19;5032473;28;19913;-68
2023/03/12 05:10:10;;;;;;;;;;;;;;;-142.75;100.00;77647.19;5032554;28;19920;-68
2023/03/12 05:12:36;;;;;;;;;;;;;;;-142.75;100.00;77655.06;5041453;28;19920;-68
2023/03/12 05:15:01;;;;;;;;;;;;;;;-142.75;100.00;77633.41;5052320;28;19920;-68
2023/03/12 05:17:26;;;;;;;;;;;;;;;-142.75;100.00;77635.38;5050665;28;20483;-67
2023/03/12 05:19:51;;;;;;;;;;;;;;;-142.75;100.00;77625.53;5050968;28;19920;-68
2023/03/12 05:22:17;;;;;;;;;;;;;;;-142.75;100.00;77617.66;5052288;28;19912;-68
2023/03/12 05:24:42;;;;;;;;;;;;;;;-142.75;100.00;77601.91;5050966;28;20399;-65
2023/03/12 05:27:07;;;;;;;;;;;;;;;-142.75;100.00;77607.81;5052386;28;19912;-69
2023/03/12 05:29:34;;;;;;;;;;;;;;;-142.75;100.00;77597.97;5052017;28;19917;-68
2023/03/12 05:31:59;;;;;;;;;;;;;;;-142.75;100.00;77596.00;5050761;28;19917;-68
2023/03/12 05:34:25;;;;;;;;;;;;;;;-142.75;100.00;77592.06;5052077;28;19913;-68
2023/03/12 05:36:50;;;;;;;;;;;;;;;-142.75;100.00;77586.16;5050841;28;20338;-68
2023/03/12 05:39:15;;;;;;;;;;;;;;;-142.75;100.00;77584.19;5051769;28;20343;-68
2023/03/12 05:41:40;;;;;;;;;;;;;;;-142.75;100.00;77580.25;5051989;28;19913;-68
2023/03/12 05:44:06;;;;;;;;;;;;;;;-142.75;100.00;77588.13;5050649;28;19913;-68
2023/03/12 05:46:31;;;;;;;;;;;;;;;-142.75;100.00;77574.34;5052040;28;19913;-68
2023/03/12 05:48:56;;;;;;;;;;;;;;;-142.75;100.00;77558.59;5051947;28;19912;-68
2023/03/12 05:51:21;;;;;;;;;;;;;;;-142.75;100.00;77554.66;5051793;28;19970;-68
2023/03/12 05:53:47;;;;;;;;;;;;;;;-142.75;100.00;77546.78;5051777;28;19912;-68
2023/03/12 05:56:13;;;;;;;;;;;;;;;-142.75;100.00;77538.91;5051982;28;19955;-67
2023/03/12 05:58:39;;;;;;;;;;;;;;;-142.75;100.00;77546.78;5050686;28;19913;-68
2023/03/12 06:01:12;;;;;;;;;;;;;;;-142.75;100.00;77546.78;5050406;28;19923;-68
2023/03/12 06:03:37;;;;;;;;;;;;;;;-142.75;100.00;77531.03;5051720;28;19913;-68
2023/03/12 06:06:03;;;;;;;;;;;;;;;-142.75;100.00;77527.09;5050565;28;19913;-67
2023/03/12 06:08:28;;;;;;;;;;;;;;;-142.75;100.00;77523.16;5050543;28;19939;-68
2023/03/12 06:10:53;;;;;;;;;;;;;;;-142.75;100.00;77519.22;5051617;28;19924;-68
2023/03/12 06:13:19;;;;;;;;;;;;;;;-142.75;100.00;77505.44;5051586;28;19948;-68
2023/03/12 06:15:45;;;;;;;;;;;;;;;-142.75;100.00;77511.34;5050575;28;20011;-68
2023/03/12 06:18:10;;;;;;;;;;;;;;;-142.75;100.00;77495.59;5051761;28;19951;-68
2023/03/12 06:20:35;;;;;;;;;;;;;;;-142.75;100.00;77505.44;5051645;28;19913;-68
2023/03/12 06:23:00;;;;;;;;;;;;;;;-142.75;100.00;77495.59;5051644;28;19917;-68
2023/03/12 06:25:26;;;;;;;;;;;;;;;-142.75;100.00;77483.78;5051678;28;19913;-67
2023/03/12 06:27:51;;;;;;;;;;;;;;;-142.75;100.00;77477.88;5051485;28;19913;-68
2023/03/12 06:30:16;;;;;;;;;;;;;;;-142.75;100.00;77477.88;5051453;28;19923;-68
2023/03/12 06:32:41;;;;;;;;;;;;;;;-142.75;100.00;77468.03;5051308;28;19917;-67
2023/03/12 06:35:07;;;;;;;;;;;;;;;-142.75;100.00;77460.13;5050298;28;19912;-67
2023/03/12 06:37:32;;;;;;;;;;;;;;;-142.75;100.00;77460.13;5051490;28;19916;-68
2023/03/12 06:39:57;;;;;;;;;;;;;;;-142.75;100.00;77444.38;5051453;28;19913;-69
2023/03/12 06:42:22;;;;;;;;;;;;;;;-142.75;100.00;77440.44;5051308;28;19944;-67
2023/03/12 06:44:48;;;;;;;;;;;;;;;-142.75;100.00;77436.50;5051450;28;19958;-68
2023/03/12 06:47:13;;;;;;;;;;;;;;;-142.75;100.00;77428.63;5050128;28;19948;-68
2023/03/12 06:49:39;;;;;;;;;;;;;;;-142.75;100.00;77424.69;5050124;28;19966;-68
2023/03/12 06:52:04;;;;;;;;;;;;;;;-142.75;100.00;77416.81;5053139;28;19921;-68
2023/03/12 06:54:29;;;;;;;;;;;;;;;-142.75;100.00;77405.00;5053807;28;20531;-67
2023/03/12 06:56:55;;;;;;;;;;;;;;;-142.75;100.00;77422.72;5055113;28;19913;-66
2023/03/12 06:59:20;;;;;;;;;;;;;;;-142.75;100.00;77401.06;5055031;28;19919;-66
2023/03/12 07:01:46;;;;;;;;;;;;;;;-142.75;100.00;77393.19;5054772;28;19916;-67
2023/03/12 07:04:11;;;;;;;;;;;;;;;-142.75;100.00;77391.22;5053675;28;19913;-67
2023/03/12 07:06:37;;;;;;;;;;;;;;;-142.75;100.00;77389.25;5054910;28;19913;-67
2023/03/12 07:09:03;;;;;;;;;;;;;;;-142.75;100.00;77393.19;5054932;28;19913;-67
2023/03/12 07:11:29;;;;;;;;;;;;;;;-142.75;100.00;77397.13;5053765;28;19925;-67
2023/03/12 07:13:54;;;;;;;;;;;;;;;-142.75;100.00;77391.22;5054627;28;19929;-67
2023/03/12 07:16:19;;;;;;;;;;;;;;;-142.75;100.00;77389.25;5053375;28;19919;-67
2023/03/12 07:18:44;;;;;;;;;;;;;;;-142.75;100.00;77385.31;5054645;28;19995;-67
2023/03/12 07:21:09;;;;;;;;;;;;;;;-142.75;100.00;77377.44;5054449;28;20015;-67
2023/03/12 07:23:35;;;;;;;;;;;;;;;-142.75;100.00;77369.56;5054358;28;19919;-66
2023/03/12 07:26:02;;;;;;;;;;;;;;;-142.75;100.00;77361.69;5054189;28;20011;-68
2023/03/12 07:28:27;;;;;;;;;;;;;;;-142.75;100.00;77359.72;5054408;28;20353;-67
2023/03/12 07:30:58;;;;;;;;;;;;;;;-142.75;100.00;77342.00;5052577;28;19960;-68
2023/03/12 07:33:23;;;;;;;;;;;;;;;-142.75;100.00;77330.19;5053469;28;19919;-67
2023/03/12 07:35:48;;;;;;;;;;;;;;;-142.75;100.00;77326.25;5053101;28;19913;-67
2023/03/12 07:38:13;;;;;;;;;;;;;;;-142.75;100.00;77324.28;5052993;28;20379;-67
2023/03/12 07:40:39;;;;;;;;;;;;;;;-142.75;100.00;77326.25;5053967;28;19913;-68
2023/03/12 07:43:09;;;;;;;;;;;;;;;-142.75;100.00;77326.25;5052540;28;19916;-68
2023/03/12 07:45:35;;;;;;;;;;;;;;;-142.75;100.00;77326.25;5052758;28;19945;-67
2023/03/12 07:48:00;;;;;;;;;;;;;;;-142.75;100.00;77314.44;5054034;28;19963;-67
2023/03/12 07:50:25;;;;;;;;;;;;;;;-142.75;100.00;77310.50;5053665;28;19928;-67
2023/03/12 07:52:51;;;;;;;;;;;;;;;-142.75;100.00;77318.38;5053206;28;19917;-67
2023/03/12 07:55:16;;;;;;;;;;;;;;;-142.75;100.00;77302.63;5053402;28;19919;-67
2023/03/12 07:57:41;;;;;;;;;;;;;;;-142.75;100.00;77294.75;5053648;28;19919;-68
2023/03/12 08:00:09;;;;;;;;;;;;;;;-142.75;100.00;77279.00;5053530;28;20463;-67
2023/03/12 08:02:34;;;;;;;;;;;;;;;-142.75;100.00;77269.16;5053337;28;20109;-68
2023/03/12 08:04:59;;;;;;;;;;;;;;;-142.75;100.00;77251.44;5053709;28;20465;-68
2023/03/12 08:07:30;;;;;;;;;;;;;;;-142.75;100.00;77247.50;5053685;28;19919;-66
2023/03/12 08:09:56;;;;;;;;;;;;;;;-142.75;100.00;77239.63;5052260;28;19917;-67
2023/03/12 08:12:21;;;;;;;;;;;;;;;-142.75;100.00;77229.78;5053019;28;19974;-68
2023/03/12 08:14:46;;;;;;;;;;;;;;;-142.75;100.00;77214.03;5051651;28;19920;-67
2023/03/12 08:17:11;;;;;;;;;;;;;;;-142.75;100.00;77196.31;5052974;28;19917;-67
2023/03/12 08:19:37;;;;;;;;;;;;;;;-142.75;100.00;77196.31;5051640;28;20395;-67
2023/03/12 08:22:02;;;;;;;;;;;;;;;-142.75;100.00;77172.69;5052789;28;19912;-67
2023/03/12 08:24:27;;;;;;;;;;;;;;;-142.75;100.00;77160.88;5052865;28;19974;-67
2023/03/12 08:26:52;;;;;;;;;;;;;;;-142.75;100.00;77158.91;5052898;28;20473;-65
2023/03/12 08:29:17;;;;;;;;;;;;;;;-142.75;100.00;77141.19;5052645;28;19917;-68
2023/03/12 08:31:43;;;;;;;;;;;;;;;-142.75;100.00;77143.16;5052698;28;19917;-67
2023/03/12 08:34:08;;;;;;;;;;;;;;;-142.75;100.00;77133.31;5051929;28;20007;-66
2023/03/12 08:36:34;;;;;;;;;;;;;;;-142.75;100.00;77117.56;5051862;28;20415;-67
2023/03/12 08:39:00;;;;;;;;;;;;;;;-142.75;100.00;77097.88;5051820;28;19917;-67
2023/03/12 08:41:25;;;;;;;;;;;;;;;-142.75;100.00;77088.03;5053146;28;20394;-66
2023/03/12 08:43:50;;;;;;;;;;;;;;;-142.75;100.00;77086.06;5051891;28;20352;-67
2023/03/12 08:46:15;;;;;;;;;;;;;;;-142.75;100.00;77088.03;5051703;28;19919;-65
2023/03/12 08:48:40;;;;;;;;;;;;;;;-142.75;100.00;77074.25;5051597;28;19999;-68
2023/03/12 08:51:06;;;;;;;;;;;;;;;-142.75;100.00;77066.38;5052758;28;19920;-67
2023/03/12 08:53:32;;;;;;;;;;;;;;;-142.75;100.00;77046.69;5052684;28;19913;-67
2023/03/12 08:55:57;;;;;;;;;;;;;;;-142.75;100.00;77025.03;5051591;28;19913;-67
2023/03/12 08:58:24;;;;;;;;;;;;;;;-142.75;100.00;77011.25;5052732;28;19935;-67
2023/03/12 09:00:49;;;;;;;;;;;;;;;-142.75;100.00;76993.53;5052432;28;19919;-67
2023/03/12 09:03:15;;;;;;;;;;;;;;;-142.75;100.00;76979.75;5051159;28;19917;-68
2023/03/12 09:05:41;;;;;;;;;;;;;;;-142.75;100.00;76973.84;5051242;28;20011;-65
2023/03/12 09:08:06;;;;;;;;;;;;;;;-142.75;100.00;76952.19;5052434;28;19912;-67
2023/03/12 09:10:32;;;;;;;;;;;;;;;-142.75;100.00;76938.41;5052344;28;19951;-67
2023/03/12 09:12:57;;;;;;;;;;;;;;;-142.75;100.00;76924.63;5051014;28;19917;-66
2023/03/12 09:15:23;;;;;;;;;;;;;;;-142.75;100.00;76920.69;5051413;28;20311;-67
2023/03/12 09:17:49;;;;;;;;;;;;;;;-142.75;100.00;76902.97;5051515;28;20288;-66
2023/03/12 09:20:14;;;;;;;;;;;;;;;-142.75;100.00;76897.06;5051406;28;19920;-68
2023/03/12 09:22:40;;;;;;;;;;;;;;;-142.75;100.00;76881.31;5051724;28;19920;-67
2023/03/12 09:25:06;;;;;;;;;;;;;;;-142.75;100.00;76879.34;5051933;28;19925;-67
2023/03/12 09:27:39;;;;;;;;;;;;;;;-142.75;100.00;76869.50;5052094;28;19939;-67
2023/03/12 09:30:05;;;;;;;;;;;;;;;-142.75;100.00;76857.69;5051956;28;20419;-68
2023/03/12 09:32:30;;;;;;;;;;;;;;;-142.75;100.00;76838.00;5049957;28;20324;-65
2023/03/12 09:34:58;;;;;;;;;;;;;;;-142.75;100.00;76826.19;5051150;28;20212;-66
2023/03/12 09:37:23;;;;;;;;;;;;;;;-142.75;100.00;76818.31;5050624;28;20388;-67
2023/03/12 09:39:48;;;;;;;;;;;;;;;-142.75;100.00;76806.50;5051966;28;19912;-68
2023/03/12 09:42:21;;;;;;;;;;;;;;;-142.75;100.00;76798.66;5051836;28;19917;-67
2023/03/12 09:44:47;;;;;;;;;;;;;;;-142.75;100.00;76782.91;5052051;28;19913;-68
2023/03/12 09:47:24;;;;;;;;;;;;;;;-142.75;100.00;76763.22;5051744;28;20016;-68
2023/03/12 09:49:53;;;;;;;;;;;;;;;-142.75;100.00;76763.22;5049077;28;19974;-68
2023/03/12 09:52:38;;;;;;;;;;;;;;;-142.75;100.00;76755.34;5051600;28;19923;-68
2023/03/12 09:55:03;;;;;;;;;;;;;;;-142.75;100.00;76741.56;5050610;28;19913;-68
2023/03/12 09:57:28;;;;;;;;;;;;;;;-142.75;100.00;76727.78;5050044;28;20403;-68
2023/03/12 09:59:56;;;;;;;;;;;;;;;-142.75;100.00;76721.88;5049957;28;20412;-67
2023/03/12 10:02:39;;;;;;;;;;;;;;;-142.75;100.00;76700.22;5051225;28;19913;-67
2023/03/12 10:05:21;;;;;;;;;;;;;;;-142.75;100.00;76684.47;5050524;28;19954;-66
2023/03/12 10:07:49;;;;;;;;;;;;;;;-142.75;100.00;76672.66;5052207;28;20292;-67
2023/03/12 10:10:23;;;;;;;;;;;;;;;-142.75;100.00;76660.84;5049897;28;19921;-68
2023/03/12 10:13:04;;;;;;;;;;;;;;;-142.75;100.00;76651.00;5051221;28;20019;-68
2023/03/12 10:15:35;;;;;;;;;;;;;;;-142.75;100.00;76649.03;5050522;28;20004;-68
2023/03/12 10:18:03;;;;;;;;;;;;;;;-142.75;100.00;76645.09;5051875;28;19959;-68
2023/03/12 10:20:45;;;;;;;;;;;;;;;-142.75;100.00;76647.06;5051696;28;19920;-68
2023/03/12 10:23:13;;;;;;;;;;;;;;;-142.75;100.00;76652.97;5051575;28;19999;-68
2023/03/12 10:25:38;;;;;;;;;;;;;;;-142.75;100.00;76645.09;5054519;28;20007;-68
2023/03/12 10:28:10;;;;;;;;;;;;;;;-142.75;100.00;76635.25;5054561;28;19955;-68
2023/03/12 10:30:40;;;;;;;;;;;;;;;-142.75;100.00;76637.22;5055272;28;19917;-67
2023/03/12 10:33:09;;;;;;;;;;;;;;;-142.75;100.00;76633.28;5053926;28;19921;-65
2023/03/12 10:35:35;;;;;;;;;;;;;;;-142.75;100.00;76625.41;5055366;28;20101;-68
2023/03/12 10:38:01;;;;;;;;;;;;;;;-142.75;100.00;76633.28;5055573;28;19917;-68
2023/03/12 10:40:28;;;;;;;;;;;;;;;-142.75;100.00;76625.41;5053995;28;20004;-68
2023/03/12 10:42:54;;;;;;;;;;;;;;;-142.75;100.00;76645.09;5055226;28;20115;-68
2023/03/12 10:45:46;;;;;;;;;;;;;;;-142.75;100.00;76656.91;5055081;28;20471;-68
2023/03/12 10:48:18;;;;;;;;;;;;;;;-142.75;100.00;76641.16;5051633;28;19913;-67
2023/03/12 10:50:58;;;;;;;;;;;;;;;-142.75;100.00;76637.22;5055087;28;19912;-66
2023/03/12 10:53:27;;;;;;;;;;;;;;;-142.75;100.00;76613.59;5054900;28;19948;-68
2023/03/12 10:55:58;;;;;;;;;;;;;;;-142.75;100.00;76605.72;5053631;28;19924;-68
2023/03/12 10:58:24;;;;;;;;;;;;;;;-142.75;100.00;76609.66;5054954;28;19974;-69
2023/03/12 11:00:59;;;;;;;;;;;;;;;-142.75;100.00;76609.66;5054322;28;20461;-67
2023/03/12 11:03:25;;;;;;;;;;;;;;;-142.75;100.00;76613.59;5052470;28;19923;-68
2023/03/12 11:05:51;;;;;;;;;;;;;;;-142.75;100.00;76633.28;5053875;28;20325;-67
2023/03/12 11:08:22;;;;;;;;;;;;;;;-142.75;100.00;76627.38;5053224;28;19913;-67
2023/03/12 11:10:48;;;;;;;;;;;;;;;-142.75;100.00;76617.53;5053870;28;20009;-67
2023/03/12 11:13:25;;;;;;;;;;;;;;;-142.75;100.00;76625.41;5052393;28;19965;-67
2023/03/12 11:15:51;;;;;;;;;;;;;;;-142.75;100.00;76621.47;5051862;28;19999;-67
2023/03/12 11:18:20;;;;;;;;;;;;;;;-142.75;100.00;76601.78;5052725;28;20058;-69
2023/03/12 11:20:46;;;;;;;;;;;;;;;-142.75;100.00;76591.94;5054054;28;19953;-68
2023/03/12 11:23:14;;;;;;;;;;;;;;;-142.75;100.00;76595.88;5053961;28;19995;-66
2023/03/12 11:25:39;;;;;;;;;;;;;;;-142.75;100.00;76601.78;5053650;28;19920;-67
2023/03/12 11:28:05;;;;;;;;;;;;;;;-142.75;100.00;76597.84;5054023;28;19913;-65
2023/03/12 11:30:39;;;;;;;;;;;;;;;-142.75;100.00;76593.91;5053077;28;19917;-66
2023/03/12 11:33:05;;;;;;;;;;;;;;;-142.75;100.00;76570.28;5053715;28;19991;-66
2023/03/12 11:35:30;;;;;;;;;;;;;;;-142.75;100.00;76556.50;5053381;28;20376;-66
2023/03/12 11:37:58;;;;;;;;;;;;;;;-142.75;100.00;76532.88;5053515;28;20388;-66
2023/03/12 11:40:42;;;;;;;;;;;;;;;-142.75;100.00;76530.91;5054016;28;19919;-66
2023/03/12 11:43:13;;;;;;;;;;;;;;;-142.75;100.00;76538.78;5054062;28;19971;-65
2023/03/12 11:45:45;;;;;;;;;;;;;;;-142.75;100.00;76544.69;5069380;28;19917;-66
2023/03/12 11:48:14;;;;;;;;;;;;;;;-142.75;100.00;76536.84;5053763;28;20303;-66
2023/03/12 11:50:58;;;;;;;;;;;;;;;-142.75;100.00;76542.72;5053879;28;19912;-65
2023/03/12 11:53:38;;;;;;;;;;;;;;;-142.75;100.00;76528.97;5052857;28;19963;-65
2023/03/12 11:56:13;;;;;;;;;;;;;;;-142.75;100.00;76527.00;5050301;28;19960;-67
2023/03/12 11:58:44;;;;;;;;;;;;;;;-142.75;100.00;76511.25;5049488;28;19920;-67
2023/03/12 12:01:17;;;;;;;;;;;;;;;-142.75;100.00;76509.28;5049268;28;19913;-66
2023/03/12 12:03:54;;;;;;;;;;;;;;;-142.75;100.00;76489.59;5052774;28;19917;-67
2023/03/12 12:06:27;;;;;;;;;;;;;;;-142.75;100.00;76462.03;5058667;28;20004;-68
2023/03/12 12:09:00;;;;;;;;;;;;;;;-142.75;100.00;76481.72;5053222;28;19919;-66
2023/03/12 12:11:34;;;;;;;;;;;;;;;-142.75;100.00;76464.00;5050953;28;20463;-65
2023/03/12 12:14:05;;;;;;;;;;;;;;;-142.75;100.00;76458.09;5053549;28;20026;-66
2023/03/12 12:16:39;;;;;;;;;;;;;;;-142.75;100.00;76460.06;5053635;28;19913;-66